sensor_id;sensor_type;location;lat;lon;timestamp;pressure;altitude;pressure_sealevel;temperature
42197;BMP280;27866;48.146;17.098;2022-11-03T00:03:52;100484.47;;;13.89
42197;BMP280;27866;48.146;17.098;2022-11-03T00:08:04;100474.88;;;13.90
42197;BMP280;27866;48.146;17.098;2022-11-03T00:12:15;100484.16;;;13.93
42197;BMP280;27866;48.146;17.098;2022-11-03T00:16:26;100485.91;;;14.05
42197;BMP280;27866;48.146;17.098;2022-11-03T00:20:37;100476.69;;;14.12
42197;BMP280;27866;48.146;17.098;2022-11-03T00:24:48;100492.31;;;14.12
42197;BMP280;27866;48.146;17.098;2022-11-03T00:29:05;100478.81;;;14.07
42197;BMP280;27866;48.146;17.098;2022-11-03T00:33:16;100481.84;;;14.01
42197;BMP280;27866;48.146;17.098;2022-11-03T00:37:27;100491.53;;;13.99
42197;BMP280;27866;48.146;17.098;2022-11-03T00:41:39;100495.06;;;13.98
42197;BMP280;27866;48.146;17.098;2022-11-03T00:45:50;100491.72;;;13.96
42197;BMP280;27866;48.146;17.098;2022-11-03T00:50:02;100496.75;;;13.87
42197;BMP280;27866;48.146;17.098;2022-11-03T00:54:13;100493.03;;;13.79
42197;BMP280;27866;48.146;17.098;2022-11-03T00:58:24;100485.22;;;13.79
42197;BMP280;27866;48.146;17.098;2022-11-03T01:02:35;100488.44;;;13.82
42197;BMP280;27866;48.146;17.098;2022-11-03T01:06:49;100478.84;;;13.83
42197;BMP280;27866;48.146;17.098;2022-11-03T01:15:51;100481.97;;;13.76
42197;BMP280;27866;48.146;17.098;2022-11-03T01:20:06;100467.22;;;13.76
42197;BMP280;27866;48.146;17.098;2022-11-03T01:24:19;100460.13;;;13.78
42197;BMP280;27866;48.146;17.098;2022-11-03T01:28:36;100461.81;;;13.79
42197;BMP280;27866;48.146;17.098;2022-11-03T01:32:47;100454.81;;;13.67
42197;BMP280;27866;48.146;17.098;2022-11-03T01:36:59;100457.22;;;13.58
42197;BMP280;27866;48.146;17.098;2022-11-03T01:41:15;100457.22;;;13.58
42197;BMP280;27866;48.146;17.098;2022-11-03T01:45:27;100454.94;;;13.54
42197;BMP280;27866;48.146;17.098;2022-11-03T01:49:51;100448.88;;;13.41
42197;BMP280;27866;48.146;17.098;2022-11-03T01:54:08;100453.59;;;13.36
42197;BMP280;27866;48.146;17.098;2022-11-03T01:58:29;100451.41;;;13.31
42197;BMP280;27866;48.146;17.098;2022-11-03T02:02:42;100439.78;;;13.24
42197;BMP280;27866;48.146;17.098;2022-11-03T02:07:42;100448.09;;;13.17
42197;BMP280;27866;48.146;17.098;2022-11-03T02:11:55;100433.09;;;13.08
42197;BMP280;27866;48.146;17.098;2022-11-03T02:16:19;100434.56;;;13.12
42197;BMP280;27866;48.146;17.098;2022-11-03T02:20:32;100423.97;;;13.15
42197;BMP280;27866;48.146;17.098;2022-11-03T02:29:06;100418.97;;;13.12
42197;BMP280;27866;48.146;17.098;2022-11-03T02:38:13;100420.19;;;12.94
42197;BMP280;27866;48.146;17.098;2022-11-03T02:42:25;100413.31;;;12.81
42197;BMP280;27866;48.146;17.098;2022-11-03T02:46:39;100415.53;;;12.75
42197;BMP280;27866;48.146;17.098;2022-11-03T02:50:53;100409.16;;;12.67
42197;BMP280;27866;48.146;17.098;2022-11-03T02:55:22;100414.13;;;12.58
42197;BMP280;27866;48.146;17.098;2022-11-03T02:59:45;100417.88;;;12.54
42197;BMP280;27866;48.146;17.098;2022-11-03T03:04:01;100416.47;;;12.48
42197;BMP280;27866;48.146;17.098;2022-11-03T03:08:13;100417.78;;;12.42
42197;BMP280;27866;48.146;17.098;2022-11-03T03:12:25;100420.41;;;12.42
42197;BMP280;27866;48.146;17.098;2022-11-03T03:17:11;100416.34;;;12.38
42197;BMP280;27866;48.146;17.098;2022-11-03T03:21:33;100411.03;;;12.39
42197;BMP280;27866;48.146;17.098;2022-11-03T03:26:09;100413.84;;;12.36
42197;BMP280;27866;48.146;17.098;2022-11-03T03:30:20;100415.81;;;12.33
42197;BMP280;27866;48.146;17.098;2022-11-03T03:34:33;100410.72;;;12.31
42197;BMP280;27866;48.146;17.098;2022-11-03T03:38:54;100406.72;;;12.26
42197;BMP280;27866;48.146;17.098;2022-11-03T03:43:07;100395.81;;;12.21
42197;BMP280;27866;48.146;17.098;2022-11-03T03:47:27;100390.13;;;12.17
42197;BMP280;27866;48.146;17.098;2022-11-03T03:51:39;100395.31;;;12.17
42197;BMP280;27866;48.146;17.098;2022-11-03T03:55:51;100399.84;;;12.13
42197;BMP280;27866;48.146;17.098;2022-11-03T04:00:03;100385.50;;;12.08
42197;BMP280;27866;48.146;17.098;2022-11-03T04:04:23;100396.81;;;12.07
42197;BMP280;27866;48.146;17.098;2022-11-03T04:08:34;100381.44;;;12.04
42197;BMP280;27866;48.146;17.098;2022-11-03T04:12:46;100391.28;;;11.99
42197;BMP280;27866;48.146;17.098;2022-11-03T04:17:19;100391.47;;;11.96
42197;BMP280;27866;48.146;17.098;2022-11-03T04:21:49;100378.59;;;11.95
42197;BMP280;27866;48.146;17.098;2022-11-03T04:26:19;100380.91;;;11.99
42197;BMP280;27866;48.146;17.098;2022-11-03T04:30:33;100377.41;;;12.12
42197;BMP280;27866;48.146;17.098;2022-11-03T04:34:45;100373.53;;;12.31
42197;BMP280;27866;48.146;17.098;2022-11-03T04:38:57;100363.03;;;12.32
42197;BMP280;27866;48.146;17.098;2022-11-03T04:43:17;100364.19;;;12.41
42197;BMP280;27866;48.146;17.098;2022-11-03T04:47:29;100358.78;;;12.44
42197;BMP280;27866;48.146;17.098;2022-11-03T04:51:40;100357.53;;;12.37
42197;BMP280;27866;48.146;17.098;2022-11-03T04:55:52;100355.47;;;12.30
42197;BMP280;27866;48.146;17.098;2022-11-03T05:00:05;100340.34;;;12.22
42197;BMP280;27866;48.146;17.098;2022-11-03T05:04:17;100351.88;;;12.18
42197;BMP280;27866;48.146;17.098;2022-11-03T05:08:28;100349.50;;;12.16
42197;BMP280;27866;48.146;17.098;2022-11-03T05:12:39;100347.91;;;12.13
42197;BMP280;27866;48.146;17.098;2022-11-03T05:16:53;100351.56;;;12.11
42197;BMP280;27866;48.146;17.098;2022-11-03T05:21:18;100351.63;;;12.09
42197;BMP280;27866;48.146;17.098;2022-11-03T05:25:38;100356.03;;;12.09
42197;BMP280;27866;48.146;17.098;2022-11-03T05:29:52;100368.69;;;12.13
42197;BMP280;27866;48.146;17.098;2022-11-03T05:34:36;100363.00;;;12.20
42197;BMP280;27866;48.146;17.098;2022-11-03T05:38:47;100366.66;;;12.30
42197;BMP280;27866;48.146;17.098;2022-11-03T05:43:00;100354.75;;;12.52
42197;BMP280;27866;48.146;17.098;2022-11-03T05:47:40;100356.56;;;12.75
42197;BMP280;27866;48.146;17.098;2022-11-03T05:51:50;100354.28;;;12.83
42197;BMP280;27866;48.146;17.098;2022-11-03T05:56:04;100349.28;;;13.04
42197;BMP280;27866;48.146;17.098;2022-11-03T06:00:40;100353.22;;;13.22
42197;BMP280;27866;48.146;17.098;2022-11-03T06:04:52;100346.34;;;13.21
42197;BMP280;27866;48.146;17.098;2022-11-03T06:09:15;100358.63;;;13.19
42197;BMP280;27866;48.146;17.098;2022-11-03T06:13:34;100366.00;;;13.25
42197;BMP280;27866;48.146;17.098;2022-11-03T06:17:47;100360.91;;;13.35
42197;BMP280;27866;48.146;17.098;2022-11-03T06:22:07;100357.75;;;13.43
42197;BMP280;27866;48.146;17.098;2022-11-03T06:26:24;100372.41;;;13.56
42197;BMP280;27866;48.146;17.098;2022-11-03T06:30:39;100365.25;;;13.82
42197;BMP280;27866;48.146;17.098;2022-11-03T06:34:52;100371.22;;;14.17
42197;BMP280;27866;48.146;17.098;2022-11-03T06:39:21;100372.16;;;14.39
42197;BMP280;27866;48.146;17.098;2022-11-03T06:43:42;100369.06;;;14.67
42197;BMP280;27866;48.146;17.098;2022-11-03T06:47:53;100366.75;;;14.52
42197;BMP280;27866;48.146;17.098;2022-11-03T06:52:36;100370.34;;;14.62
42197;BMP280;27866;48.146;17.098;2022-11-03T06:56:49;100364.44;;;14.71
42197;BMP280;27866;48.146;17.098;2022-11-03T07:01:26;100375.84;;;14.80
42197;BMP280;27866;48.146;17.098;2022-11-03T07:05:39;100368.63;;;14.94
42197;BMP280;27866;48.146;17.098;2022-11-03T07:09:50;100375.56;;;15.17
42197;BMP280;27866;48.146;17.098;2022-11-03T07:14:13;100372.34;;;15.24
42197;BMP280;27866;48.146;17.098;2022-11-03T07:18:30;100361.44;;;15.40
42197;BMP280;27866;48.146;17.098;2022-11-03T07:22:45;100367.72;;;15.38
42197;BMP280;27866;48.146;17.098;2022-11-03T07:31:34;100378.88;;;15.29
42197;BMP280;27866;48.146;17.098;2022-11-03T07:35:47;100368.09;;;15.34
42197;BMP280;27866;48.146;17.098;2022-11-03T07:39:59;100364.28;;;15.48
42197;BMP280;27866;48.146;17.098;2022-11-03T07:44:16;100359.28;;;15.56
42197;BMP280;27866;48.146;17.098;2022-11-03T07:48:56;100353.81;;;15.69
42197;BMP280;27866;48.146;17.098;2022-11-03T07:53:39;100348.53;;;15.91
42197;BMP280;27866;48.146;17.098;2022-11-03T07:57:51;100342.50;;;17.96
42197;BMP280;27866;48.146;17.098;2022-11-03T08:02:05;100330.13;;;18.62
42197;BMP280;27866;48.146;17.098;2022-11-03T08:06:22;100334.84;;;19.03
42197;BMP280;27866;48.146;17.098;2022-11-03T08:10:33;100334.06;;;18.48
42197;BMP280;27866;48.146;17.098;2022-11-03T08:14:45;100326.19;;;17.83
42197;BMP280;27866;48.146;17.098;2022-11-03T08:18:56;100324.84;;;17.89
42197;BMP280;27866;48.146;17.098;2022-11-03T08:23:07;100321.91;;;17.73
42197;BMP280;27866;48.146;17.098;2022-11-03T08:27:18;100318.13;;;17.67
42197;BMP280;27866;48.146;17.098;2022-11-03T08:31:29;100312.94;;;17.76
42197;BMP280;27866;48.146;17.098;2022-11-03T08:35:40;100304.63;;;17.62
42197;BMP280;27866;48.146;17.098;2022-11-03T08:39:51;100304.28;;;17.94
42197;BMP280;27866;48.146;17.098;2022-11-03T08:44:03;100301.53;;;18.04
42197;BMP280;27866;48.146;17.098;2022-11-03T08:48:14;100296.41;;;18.12
42197;BMP280;27866;48.146;17.098;2022-11-03T08:52:25;100284.97;;;18.22
42197;BMP280;27866;48.146;17.098;2022-11-03T08:56:36;100288.53;;;18.49
42197;BMP280;27866;48.146;17.098;2022-11-03T09:00:48;100290.38;;;18.12
42197;BMP280;27866;48.146;17.098;2022-11-03T09:04:59;100281.94;;;18.08
42197;BMP280;27866;48.146;17.098;2022-11-03T09:09:11;100278.63;;;17.79
42197;BMP280;27866;48.146;17.098;2022-11-03T09:13:22;100271.50;;;17.61
42197;BMP280;27866;48.146;17.098;2022-11-03T09:17:33;100260.41;;;17.77
42197;BMP280;27866;48.146;17.098;2022-11-03T09:21:44;100247.03;;;17.98
42197;BMP280;27866;48.146;17.098;2022-11-03T09:25:55;100240.91;;;17.70
42197;BMP280;27866;48.146;17.098;2022-11-03T09:30:07;100235.91;;;17.40
42197;BMP280;27866;48.146;17.098;2022-11-03T09:34:18;100231.19;;;17.16
42197;BMP280;27866;48.146;17.098;2022-11-03T09:38:29;100236.31;;;16.88
42197;BMP280;27866;48.146;17.098;2022-11-03T09:42:41;100227.91;;;16.85
42197;BMP280;27866;48.146;17.098;2022-11-03T09:46:52;100216.13;;;16.80
42197;BMP280;27866;48.146;17.098;2022-11-03T09:51:04;100210.69;;;16.82
42197;BMP280;27866;48.146;17.098;2022-11-03T09:55:23;100186.34;;;16.91
42197;BMP280;27866;48.146;17.098;2022-11-03T09:59:35;100187.03;;;16.93
42197;BMP280;27866;48.146;17.098;2022-11-03T10:03:47;100172.03;;;16.95
42197;BMP280;27866;48.146;17.098;2022-11-03T10:08:04;100159.44;;;16.80
42197;BMP280;27866;48.146;17.098;2022-11-03T10:12:17;100157.84;;;16.88
42197;BMP280;27866;48.146;17.098;2022-11-03T10:16:28;100154.69;;;16.94
42197;BMP280;27866;48.146;17.098;2022-11-03T10:20:39;100142.88;;;17.09
42197;BMP280;27866;48.146;17.098;2022-11-03T10:25:36;100143.28;;;17.13
42197;BMP280;27866;48.146;17.098;2022-11-03T10:30:11;100128.41;;;17.14
42197;BMP280;27866;48.146;17.098;2022-11-03T10:34:38;100115.34;;;17.23
42197;BMP280;27866;48.146;17.098;2022-11-03T10:38:49;100113.84;;;17.30
42197;BMP280;27866;48.146;17.098;2022-11-03T10:43:01;100111.38;;;17.38
42197;BMP280;27866;48.146;17.098;2022-11-03T10:47:31;100094.25;;;17.52
42197;BMP280;27866;48.146;17.098;2022-11-03T10:51:51;100070.53;;;17.63
42197;BMP280;27866;48.146;17.098;2022-11-03T10:56:03;100074.53;;;17.76
42197;BMP280;27866;48.146;17.098;2022-11-03T11:00:16;100062.22;;;17.95
42197;BMP280;27866;48.146;17.098;2022-11-03T11:04:28;100056.81;;;18.05
42197;BMP280;27866;48.146;17.098;2022-11-03T11:08:39;100047.25;;;18.23
42197;BMP280;27866;48.146;17.098;2022-11-03T11:13:24;100034.03;;;18.41
42197;BMP280;27866;48.146;17.098;2022-11-03T11:17:43;100039.69;;;18.37
42197;BMP280;27866;48.146;17.098;2022-11-03T11:51:44;99982.44;;;20.73
42197;BMP280;27866;48.146;17.098;2022-11-03T11:55:57;99972.13;;;20.31
42197;BMP280;27866;48.146;17.098;2022-11-03T12:00:20;99966.59;;;20.09
42197;BMP280;27866;48.146;17.098;2022-11-03T12:04:32;99948.94;;;20.27
42197;BMP280;27866;48.146;17.098;2022-11-03T12:08:44;99943.72;;;20.50
42197;BMP280;27866;48.146;17.098;2022-11-03T12:12:57;99926.63;;;20.46
42197;BMP280;27866;48.146;17.098;2022-11-03T12:21:47;99918.22;;;20.43
42197;BMP280;27866;48.146;17.098;2022-11-03T12:25:59;99906.94;;;20.81
42197;BMP280;27866;48.146;17.098;2022-11-03T12:30:16;99896.44;;;21.12
42197;BMP280;27866;48.146;17.098;2022-11-03T12:34:28;99888.44;;;21.66
42197;BMP280;27866;48.146;17.098;2022-11-03T12:38:39;99862.91;;;21.74
42197;BMP280;27866;48.146;17.098;2022-11-03T12:42:50;99858.78;;;21.64
42197;BMP280;27866;48.146;17.098;2022-11-03T12:47:02;99860.13;;;21.52
42197;BMP280;27866;48.146;17.098;2022-11-03T12:51:18;99834.34;;;21.40
42197;BMP280;27866;48.146;17.098;2022-11-03T12:55:30;99832.81;;;21.46
42197;BMP280;27866;48.146;17.098;2022-11-03T12:59:41;99824.75;;;21.47
42197;BMP280;27866;48.146;17.098;2022-11-03T13:03:52;99812.06;;;21.43
42197;BMP280;27866;48.146;17.098;2022-11-03T13:08:03;99804.50;;;21.48
42197;BMP280;27866;48.146;17.098;2022-11-03T13:12:14;99798.13;;;21.27
42197;BMP280;27866;48.146;17.098;2022-11-03T13:16:41;99790.97;;;21.43
42197;BMP280;27866;48.146;17.098;2022-11-03T13:20:52;99799.47;;;21.68
42197;BMP280;27866;48.146;17.098;2022-11-03T13:25:03;99788.19;;;21.89
42197;BMP280;27866;48.146;17.098;2022-11-03T13:29:15;99783.06;;;21.88
42197;BMP280;27866;48.146;17.098;2022-11-03T13:33:26;99777.31;;;21.84
42197;BMP280;27866;48.146;17.098;2022-11-03T13:37:37;99765.34;;;22.04
42197;BMP280;27866;48.146;17.098;2022-11-03T13:41:48;99761.16;;;21.87
42197;BMP280;27866;48.146;17.098;2022-11-03T13:45:59;99751.00;;;21.77
42197;BMP280;27866;48.146;17.098;2022-11-03T13:50:12;99743.72;;;21.49
42197;BMP280;27866;48.146;17.098;2022-11-03T13:54:23;99732.56;;;21.32
42197;BMP280;27866;48.146;17.098;2022-11-03T13:58:34;99732.31;;;21.19
42197;BMP280;27866;48.146;17.098;2022-11-03T14:02:45;99727.91;;;21.04
42197;BMP280;27866;48.146;17.098;2022-11-03T14:06:58;99719.84;;;20.90
42197;BMP280;27866;48.146;17.098;2022-11-03T14:11:09;99716.47;;;20.74
42197;BMP280;27866;48.146;17.098;2022-11-03T14:15:39;99725.69;;;20.70
42197;BMP280;27866;48.146;17.098;2022-11-03T14:19:51;99708.84;;;20.87
42197;BMP280;27866;48.146;17.098;2022-11-03T14:24:06;99713.19;;;20.72
42197;BMP280;27866;48.146;17.098;2022-11-03T14:28:17;99709.56;;;20.50
42197;BMP280;27866;48.146;17.098;2022-11-03T14:32:28;99712.22;;;20.42
42197;BMP280;27866;48.146;17.098;2022-11-03T14:36:39;99698.09;;;20.35
42197;BMP280;27866;48.146;17.098;2022-11-03T14:40:50;99704.97;;;20.13
42197;BMP280;27866;48.146;17.098;2022-11-03T14:45:20;99700.06;;;19.95
42197;BMP280;27866;48.146;17.098;2022-11-03T14:49:33;99701.19;;;19.85
42197;BMP280;27866;48.146;17.098;2022-11-03T14:53:44;99699.16;;;19.63
42197;BMP280;27866;48.146;17.098;2022-11-03T14:57:55;99706.59;;;19.28
42197;BMP280;27866;48.146;17.098;2022-11-03T15:02:06;99700.47;;;19.12
42197;BMP280;27866;48.146;17.098;2022-11-03T15:06:17;99706.84;;;19.09
42197;BMP280;27866;48.146;17.098;2022-11-03T15:10:29;99703.06;;;19.04
42197;BMP280;27866;48.146;17.098;2022-11-03T15:14:40;99696.50;;;19.08
42197;BMP280;27866;48.146;17.098;2022-11-03T15:18:51;99701.72;;;19.00
42197;BMP280;27866;48.146;17.098;2022-11-03T15:23:03;99683.13;;;18.61
42197;BMP280;27866;48.146;17.098;2022-11-03T15:27:15;99679.97;;;18.33
42197;BMP280;27866;48.146;17.098;2022-11-03T15:31:27;99668.97;;;18.05
42197;BMP280;27866;48.146;17.098;2022-11-03T15:35:38;99693.31;;;17.81
42197;BMP280;27866;48.146;17.098;2022-11-03T15:39:49;99681.38;;;17.69
42197;BMP280;27866;48.146;17.098;2022-11-03T15:44:00;99681.66;;;17.50
42197;BMP280;27866;48.146;17.098;2022-11-03T15:48:11;99668.78;;;17.39
42197;BMP280;27866;48.146;17.098;2022-11-03T15:52:22;99659.22;;;17.30
42197;BMP280;27866;48.146;17.098;2022-11-03T15:56:34;99666.84;;;17.41
42197;BMP280;27866;48.146;17.098;2022-11-03T16:00:45;99663.31;;;17.33
42197;BMP280;27866;48.146;17.098;2022-11-03T16:04:56;99669.88;;;17.20
42197;BMP280;27866;48.146;17.098;2022-11-03T16:09:07;99671.59;;;17.11
42197;BMP280;27866;48.146;17.098;2022-11-03T16:13:18;99659.09;;;17.06
42197;BMP280;27866;48.146;17.098;2022-11-03T16:17:29;99659.81;;;16.98
42197;BMP280;27866;48.146;17.098;2022-11-03T16:21:40;99660.22;;;17.03
42197;BMP280;27866;48.146;17.098;2022-11-03T16:25:52;99654.91;;;17.12
42197;BMP280;27866;48.146;17.098;2022-11-03T16:30:04;99637.28;;;17.14
42197;BMP280;27866;48.146;17.098;2022-11-03T16:34:16;99637.81;;;17.18
42197;BMP280;27866;48.146;17.098;2022-11-03T16:38:27;99636.09;;;17.26
42197;BMP280;27866;48.146;17.098;2022-11-03T16:42:38;99629.22;;;17.25
42197;BMP280;27866;48.146;17.098;2022-11-03T16:46:49;99631.03;;;16.98
42197;BMP280;27866;48.146;17.098;2022-11-03T16:51:00;99630.88;;;16.83
42197;BMP280;27866;48.146;17.098;2022-11-03T16:55:13;99635.38;;;16.90
42197;BMP280;27866;48.146;17.098;2022-11-03T16:59:24;99638.66;;;16.92
42197;BMP280;27866;48.146;17.098;2022-11-03T17:03:36;99628.09;;;16.84
42197;BMP280;27866;48.146;17.098;2022-11-03T17:07:48;99631.41;;;16.77
42197;BMP280;27866;48.146;17.098;2022-11-03T17:11:59;99628.41;;;16.72
42197;BMP280;27866;48.146;17.098;2022-11-03T17:16:10;99635.72;;;16.69
42197;BMP280;27866;48.146;17.098;2022-11-03T17:20:21;99630.19;;;16.72
42197;BMP280;27866;48.146;17.098;2022-11-03T17:24:32;99619.72;;;16.72
42197;BMP280;27866;48.146;17.098;2022-11-03T17:28:43;99616.88;;;16.66
42197;BMP280;27866;48.146;17.098;2022-11-03T17:32:59;99597.13;;;16.54
42197;BMP280;27866;48.146;17.098;2022-11-03T17:37:11;99596.50;;;16.43
42197;BMP280;27866;48.146;17.098;2022-11-03T17:41:23;99596.63;;;16.41
42197;BMP280;27866;48.146;17.098;2022-11-03T17:45:34;99601.88;;;16.41
42197;BMP280;27866;48.146;17.098;2022-11-03T17:49:46;99596.66;;;16.32
42197;BMP280;27866;48.146;17.098;2022-11-03T17:53:58;99603.63;;;16.15
42197;BMP280;27866;48.146;17.098;2022-11-03T17:58:11;99582.41;;;16.18
42197;BMP280;27866;48.146;17.098;2022-11-03T18:02:27;99576.38;;;16.08
42197;BMP280;27866;48.146;17.098;2022-11-03T18:06:40;99567.63;;;16.00
42197;BMP280;27866;48.146;17.098;2022-11-03T18:10:52;99565.97;;;15.99
42197;BMP280;27866;48.146;17.098;2022-11-03T18:15:18;99566.50;;;16.02
42197;BMP280;27866;48.146;17.098;2022-11-03T18:19:29;99570.78;;;16.03
42197;BMP280;27866;48.146;17.098;2022-11-03T18:23:41;99566.41;;;16.04
42197;BMP280;27866;48.146;17.098;2022-11-03T18:27:52;99557.72;;;16.03
42197;BMP280;27866;48.146;17.098;2022-11-03T18:32:03;99550.16;;;16.00
42197;BMP280;27866;48.146;17.098;2022-11-03T18:36:15;99542.22;;;16.02
42197;BMP280;27866;48.146;17.098;2022-11-03T18:40:28;99538.50;;;15.95
42197;BMP280;27866;48.146;17.098;2022-11-03T18:44:41;99528.47;;;15.91
42197;BMP280;27866;48.146;17.098;2022-11-03T18:48:52;99525.06;;;15.90
42197;BMP280;27866;48.146;17.098;2022-11-03T18:53:04;99524.38;;;15.88
42197;BMP280;27866;48.146;17.098;2022-11-03T18:57:22;99519.31;;;15.87
42197;BMP280;27866;48.146;17.098;2022-11-03T19:01:35;99503.19;;;15.91
42197;BMP280;27866;48.146;17.098;2022-11-03T19:05:48;99509.34;;;15.99
42197;BMP280;27866;48.146;17.098;2022-11-03T19:10:02;99517.44;;;15.96
42197;BMP280;27866;48.146;17.098;2022-11-03T19:14:31;99508.00;;;15.95
42197;BMP280;27866;48.146;17.098;2022-11-03T19:18:44;99506.88;;;15.98
42197;BMP280;27866;48.146;17.098;2022-11-03T19:22:56;99500.44;;;15.93
42197;BMP280;27866;48.146;17.098;2022-11-03T19:27:20;99511.47;;;15.87
42197;BMP280;27866;48.146;17.098;2022-11-03T19:31:36;99490.13;;;15.82
42197;BMP280;27866;48.146;17.098;2022-11-03T19:35:48;99487.53;;;15.82
42197;BMP280;27866;48.146;17.098;2022-11-03T19:39:59;99496.19;;;15.82
42197;BMP280;27866;48.146;17.098;2022-11-03T19:44:12;99494.81;;;15.88
42197;BMP280;27866;48.146;17.098;2022-11-03T19:48:30;99488.50;;;15.81
42197;BMP280;27866;48.146;17.098;2022-11-03T19:52:41;99475.59;;;15.70
42197;BMP280;27866;48.146;17.098;2022-11-03T19:56:53;99478.22;;;15.70
42197;BMP280;27866;48.146;17.098;2022-11-03T20:01:04;99487.75;;;15.53
42197;BMP280;27866;48.146;17.098;2022-11-03T20:05:15;99482.78;;;15.59
42197;BMP280;27866;48.146;17.098;2022-11-03T20:09:28;99472.38;;;15.50
42197;BMP280;27866;48.146;17.098;2022-11-03T20:13:41;99461.94;;;15.50
42197;BMP280;27866;48.146;17.098;2022-11-03T20:17:53;99450.97;;;15.47
42197;BMP280;27866;48.146;17.098;2022-11-03T20:22:12;99444.06;;;15.55
42197;BMP280;27866;48.146;17.098;2022-11-03T20:26:24;99433.34;;;15.58
42197;BMP280;27866;48.146;17.098;2022-11-03T20:30:36;99427.31;;;15.57
42197;BMP280;27866;48.146;17.098;2022-11-03T20:34:47;99411.66;;;15.57
42197;BMP280;27866;48.146;17.098;2022-11-03T20:38:58;99404.38;;;15.51
42197;BMP280;27866;48.146;17.098;2022-11-03T20:43:37;99400.53;;;15.55
42197;BMP280;27866;48.146;17.098;2022-11-03T20:47:50;99382.56;;;15.52
42197;BMP280;27866;48.146;17.098;2022-11-03T20:52:01;99382.97;;;15.48
42197;BMP280;27866;48.146;17.098;2022-11-03T20:56:23;99380.25;;;15.40
42197;BMP280;27866;48.146;17.098;2022-11-03T21:00:35;99373.28;;;15.32
42197;BMP280;27866;48.146;17.098;2022-11-03T21:04:46;99366.03;;;15.26
42197;BMP280;27866;48.146;17.098;2022-11-03T21:08:58;99347.47;;;15.29
42197;BMP280;27866;48.146;17.098;2022-11-03T21:13:16;99336.78;;;15.32
42197;BMP280;27866;48.146;17.098;2022-11-03T21:17:27;99337.44;;;15.34
42197;BMP280;27866;48.146;17.098;2022-11-03T21:21:57;99330.03;;;15.29
42197;BMP280;27866;48.146;17.098;2022-11-03T21:26:10;99338.13;;;15.36
42197;BMP280;27866;48.146;17.098;2022-11-03T21:30:23;99332.81;;;15.28
42197;BMP280;27866;48.146;17.098;2022-11-03T21:34:34;99317.56;;;15.23
42197;BMP280;27866;48.146;17.098;2022-11-03T21:38:45;99324.88;;;15.20
42197;BMP280;27866;48.146;17.098;2022-11-03T21:42:56;99329.16;;;15.12
42197;BMP280;27866;48.146;17.098;2022-11-03T21:47:26;99316.31;;;15.27
42197;BMP280;27866;48.146;17.098;2022-11-03T21:51:37;99308.66;;;15.26
42197;BMP280;27866;48.146;17.098;2022-11-03T21:55:48;99279.06;;;15.35
42197;BMP280;27866;48.146;17.098;2022-11-03T21:59:59;99268.13;;;15.31
42197;BMP280;27866;48.146;17.098;2022-11-03T22:04:10;99267.00;;;15.34
42197;BMP280;27866;48.146;17.098;2022-11-03T22:08:21;99260.16;;;15.33
42197;BMP280;27866;48.146;17.098;2022-11-03T22:12:34;99265.88;;;15.36
42197;BMP280;27866;48.146;17.098;2022-11-03T22:16:45;99259.56;;;15.38
42197;BMP280;27866;48.146;17.098;2022-11-03T22:20:57;99243.91;;;15.38
42197;BMP280;27866;48.146;17.098;2022-11-03T22:25:26;99253.50;;;15.38
42197;BMP280;27866;48.146;17.098;2022-11-03T22:29:56;99250.78;;;15.39
42197;BMP280;27866;48.146;17.098;2022-11-03T22:34:26;99232.22;;;15.42
42197;BMP280;27866;48.146;17.098;2022-11-03T22:38:56;99239.22;;;15.42
42197;BMP280;27866;48.146;17.098;2022-11-03T22:43:26;99223.63;;;15.33
42197;BMP280;27866;48.146;17.098;2022-11-03T22:47:56;99221.69;;;15.35
42197;BMP280;27866;48.146;17.098;2022-11-03T22:52:09;99213.00;;;15.43
42197;BMP280;27866;48.146;17.098;2022-11-03T22:56:22;99207.38;;;15.38
42197;BMP280;27866;48.146;17.098;2022-11-03T23:00:33;99228.28;;;15.55
42197;BMP280;27866;48.146;17.098;2022-11-03T23:04:45;99208.50;;;15.53
42197;BMP280;27866;48.146;17.098;2022-11-03T23:08:56;99200.31;;;15.48
42197;BMP280;27866;48.146;17.098;2022-11-03T23:13:07;99210.91;;;15.47
42197;BMP280;27866;48.146;17.098;2022-11-03T23:17:18;99190.09;;;15.37
42197;BMP280;27866;48.146;17.098;2022-11-03T23:21:32;99179.72;;;15.28
42197;BMP280;27866;48.146;17.098;2022-11-03T23:25:43;99171.03;;;15.37
42197;BMP280;27866;48.146;17.098;2022-11-03T23:29:54;99167.75;;;15.52
42197;BMP280;27866;48.146;17.098;2022-11-03T23:34:06;99159.25;;;15.50
42197;BMP280;27866;48.146;17.098;2022-11-03T23:38:18;99146.19;;;15.67
42197;BMP280;27866;48.146;17.098;2022-11-03T23:42:29;99137.94;;;15.71
42197;BMP280;27866;48.146;17.098;2022-11-03T23:46:40;99127.84;;;15.59
42197;BMP280;27866;48.146;17.098;2022-11-03T23:51:15;99118.09;;;15.61
42197;BMP280;27866;48.146;17.098;2022-11-03T23:55:27;99113.69;;;15.62
42197;BMP280;27866;48.146;17.098;2022-11-03T23:59:58;99103.63;;;15.50
